createdAt,value
2019-03-11T00:00:12.044Z,5.1
2019-03-11T00:01:11.962Z,5
2019-03-11T00:02:11.856Z,5
2019-03-11T00:03:11.802Z,5.1
2019-03-11T00:04:15.420Z,5.1
2019-03-11T00:05:19.266Z,5.1
2019-03-11T00:06:19.196Z,5.1
2019-03-11T00:07:19.125Z,5.1
2019-03-11T00:08:19.012Z,5.1
2019-03-11T00:09:18.890Z,5.1
2019-03-11T00:10:18.802Z,5.1
2019-03-11T00:11:18.682Z,5.1
2019-03-11T00:12:18.577Z,5
2019-03-11T00:13:18.467Z,5.1
2019-03-11T00:14:18.768Z,5
2019-03-11T00:15:18.661Z,5
2019-03-11T00:16:18.549Z,5
2019-03-11T00:24:17.008Z,5.5
2019-03-11T00:25:16.906Z,5.5
2019-03-11T00:26:16.805Z,5.5
2019-03-11T00:27:16.708Z,5.5
2019-03-11T00:28:16.614Z,5.4
2019-03-11T00:29:16.498Z,5.5
2019-03-11T00:30:16.393Z,5.4
2019-03-11T00:31:16.290Z,5.3
2019-03-11T00:32:16.189Z,5.1
2019-03-11T00:33:16.104Z,5.1
2019-03-11T00:34:16.435Z,5.1
2019-03-11T00:35:16.335Z,5.1
2019-03-11T00:36:16.223Z,5.1
2019-03-11T00:37:16.120Z,5
2019-03-11T00:38:16.048Z,5.1
2019-03-11T00:39:15.941Z,5.1
2019-03-11T00:40:15.863Z,5.1
2019-03-11T00:41:15.775Z,5
2019-03-11T00:42:15.682Z,5
2019-03-11T00:43:15.579Z,5
2019-03-11T00:44:15.899Z,5
2019-03-11T00:45:15.791Z,5
2019-03-11T00:46:15.700Z,5.1
2019-03-11T00:47:15.603Z,5
2019-03-11T00:48:15.517Z,5
2019-03-11T00:49:15.407Z,4.9
2019-03-11T00:50:15.306Z,4.9
2019-03-11T00:51:15.240Z,4.9
2019-03-11T00:52:15.125Z,4.9
2019-03-11T00:53:15.176Z,4.8
2019-03-11T00:54:15.597Z,4.8
2019-03-11T00:55:15.504Z,4.8
2019-03-11T00:56:15.395Z,4.8
2019-03-11T00:57:15.271Z,4.7
2019-03-11T00:58:15.159Z,4.7
2019-03-11T00:59:15.126Z,4.7
2019-03-11T01:00:15.011Z,4.7
2019-03-11T01:01:14.901Z,4.7
2019-03-11T01:02:14.798Z,4.7
2019-03-11T01:03:14.686Z,4.6
2019-03-11T01:04:15.049Z,4.7
2019-03-11T01:05:14.937Z,4.7
2019-03-11T01:06:14.825Z,4.7
2019-03-11T01:07:14.727Z,4.7
2019-03-11T01:08:14.620Z,4.7
2019-03-11T01:09:14.521Z,4.6
2019-03-11T01:10:14.444Z,4.6
2019-03-11T01:11:14.339Z,4.6
2019-03-11T01:12:14.247Z,4.6
2019-03-11T01:13:14.185Z,4.6
2019-03-11T01:14:14.545Z,4.6
2019-03-11T01:15:14.449Z,4.6
2019-03-11T01:16:14.375Z,4.5
2019-03-11T01:17:14.276Z,4.5
2019-03-11T01:18:14.227Z,4.5
2019-03-11T01:19:14.190Z,4.5
2019-03-11T01:20:14.121Z,4.5
2019-03-11T01:21:14.010Z,4.6
2019-03-11T01:22:13.911Z,4.5
2019-03-11T01:23:13.816Z,4.4
2019-03-11T01:24:14.135Z,4.4
2019-03-11T01:25:14.021Z,4.4
2019-03-11T01:26:13.948Z,4.4
2019-03-11T01:27:13.851Z,4.4
2019-03-11T01:28:13.738Z,4.4
2019-03-11T01:29:13.653Z,4.4
2019-03-11T01:30:13.537Z,4.4
2019-03-11T01:31:13.451Z,4.4
2019-03-11T01:32:13.348Z,4.4
2019-03-11T01:33:13.303Z,4.3
2019-03-11T01:34:13.629Z,4.3
2019-03-11T01:35:13.525Z,4.3
2019-03-11T01:36:13.448Z,4.3
2019-03-11T01:37:13.436Z,4.4
2019-03-11T01:38:13.325Z,4.3
2019-03-11T01:39:13.236Z,4.3
2019-03-11T01:40:13.129Z,4.2
2019-03-11T01:41:13.090Z,4.2
2019-03-11T01:42:12.989Z,4.2
2019-03-11T01:43:12.917Z,4.2
2019-03-11T01:44:13.248Z,4.2
2019-03-11T01:45:13.120Z,4.2
2019-03-11T01:54:11.376Z,4.8
2019-03-11T01:55:11.281Z,4.7
2019-03-11T01:56:11.220Z,4.6
2019-03-11T01:57:11.110Z,4.6
2019-03-11T01:58:11.009Z,4.5
2019-03-11T01:59:10.962Z,4.5
2019-03-11T02:00:10.853Z,4.5
2019-03-11T02:01:10.729Z,4.4
2019-03-11T02:02:10.611Z,4.4
2019-03-11T02:03:10.522Z,4.4
2019-03-11T02:04:10.862Z,4.4
2019-03-11T02:05:10.744Z,4.4
2019-03-11T02:06:10.618Z,4.4
2019-03-11T02:07:10.516Z,4.5
2019-03-11T02:14:09.286Z,4.8
2019-03-11T02:15:09.170Z,4.8
2019-03-11T02:16:09.054Z,4.7
2019-03-11T02:17:08.948Z,4.7
2019-03-11T02:18:08.835Z,4.6
2019-03-11T02:19:08.773Z,4.6
2019-03-11T02:20:08.672Z,4.6
2019-03-11T02:21:08.632Z,4.5
2019-03-11T02:22:08.512Z,4.5
2019-03-11T02:23:08.399Z,4.5
2019-03-11T02:24:08.720Z,4.4
2019-03-11T02:25:08.638Z,4.4
2019-03-11T02:26:08.532Z,4.4
2019-03-11T02:27:08.437Z,4.3
2019-03-11T02:28:08.332Z,4.3
2019-03-11T02:29:08.274Z,4.3
2019-03-11T02:30:08.186Z,4.3
2019-03-11T02:31:08.101Z,4.2
2019-03-11T02:32:08.016Z,4.2
2019-03-11T02:33:07.939Z,4.2
2019-03-11T02:34:08.299Z,4.1
2019-03-11T02:35:08.250Z,4.1
2019-03-11T02:36:08.196Z,4.1
2019-03-11T02:44:06.797Z,4.7
2019-03-11T02:45:06.716Z,4.6
2019-03-11T02:46:06.686Z,4.5
2019-03-11T02:47:06.584Z,4.5
2019-03-11T02:48:06.501Z,4.4
2019-03-11T02:49:06.427Z,4.4
2019-03-11T02:50:06.368Z,4.4
2019-03-11T02:51:06.284Z,4.3
2019-03-11T02:52:06.202Z,4.3
2019-03-11T02:53:06.130Z,4.3
2019-03-11T02:54:06.560Z,4.2
2019-03-11T02:55:06.935Z,4.2
2019-03-11T02:56:07.072Z,4.2
2019-03-11T02:57:07.025Z,4.2
2019-03-11T02:58:06.953Z,4.2
2019-03-11T02:59:06.847Z,4.2
2019-03-11T03:00:06.789Z,4.1
2019-03-11T03:01:06.716Z,4.1
2019-03-11T03:02:06.641Z,4.1
2019-03-11T03:03:06.618Z,4
2019-03-11T03:04:06.970Z,4
2019-03-11T03:05:06.870Z,4
2019-03-11T03:06:06.758Z,4
2019-03-11T03:07:06.800Z,4
2019-03-11T03:08:06.721Z,3.9
2019-03-11T03:09:06.642Z,3.9
2019-03-11T03:10:06.541Z,3.9
2019-03-11T03:11:06.583Z,3.9
2019-03-11T03:12:06.500Z,3.9
2019-03-11T03:13:06.415Z,3.9
2019-03-11T03:14:06.798Z,3.9
2019-03-11T03:15:06.719Z,3.9
2019-03-11T03:24:05.236Z,4.4
2019-03-11T03:25:05.158Z,4.4
2019-03-11T03:26:05.083Z,4.4
2019-03-11T03:27:05.045Z,4.4
2019-03-11T03:28:05.584Z,4.3
2019-03-11T03:29:06.515Z,4.3
2019-03-11T03:30:06.525Z,4.2
2019-03-11T03:31:06.544Z,4.2
2019-03-11T03:32:06.598Z,4.2
2019-03-11T03:33:06.636Z,4.1
2019-03-11T03:34:07.211Z,4.1
2019-03-11T03:35:07.205Z,4
2019-03-11T03:44:07.431Z,4.5
2019-03-11T03:45:07.337Z,4.5
2019-03-11T03:46:20.066Z,4.4
2019-03-11T03:47:20.058Z,4.3
2019-03-11T03:48:20.200Z,4.3
2019-03-11T03:49:20.409Z,4.2
2019-03-11T03:50:20.319Z,4.2
2019-03-11T03:51:20.245Z,4.1
2019-03-11T03:52:20.159Z,4.1
2019-03-11T03:53:20.059Z,4.1
2019-03-11T03:54:20.459Z,4.1
2019-03-11T03:55:20.435Z,4
2019-03-11T03:56:20.344Z,4
2019-03-11T03:57:20.255Z,4
2019-03-11T03:58:20.163Z,3.9
2019-03-11T03:59:20.072Z,3.9
2019-03-11T04:00:20.045Z,3.9
2019-03-11T04:01:19.953Z,3.8
2019-03-11T04:02:19.872Z,3.8
2019-03-11T04:03:19.776Z,3.8
2019-03-11T04:04:20.123Z,3.8
2019-03-11T04:05:20.055Z,3.7
2019-03-11T04:06:19.967Z,3.6
2019-03-11T04:07:19.899Z,3.6
2019-03-11T04:08:19.827Z,3.6
2019-03-11T04:09:19.741Z,3.6
2019-03-11T04:10:19.663Z,3.6
2019-03-11T04:11:19.574Z,3.6
2019-03-11T04:12:19.485Z,3.6
2019-03-11T04:13:19.415Z,3.6
2019-03-11T04:14:19.773Z,3.5
2019-03-11T04:15:19.667Z,3.5
2019-03-11T04:16:19.577Z,3.5
2019-03-11T04:17:19.473Z,3.5
2019-03-11T04:18:19.426Z,3.5
2019-03-11T04:19:19.344Z,3.5
2019-03-11T04:20:19.382Z,3.5
2019-03-11T04:21:19.396Z,3.5
2019-03-11T04:22:19.319Z,3.5
2019-03-11T04:23:19.232Z,3.4
2019-03-11T04:24:19.603Z,3.4
2019-03-11T04:25:19.645Z,3.4
2019-03-11T04:34:17.956Z,4
2019-03-11T04:35:17.872Z,4
2019-03-11T04:36:17.794Z,3.9
2019-03-11T04:37:17.743Z,3.9
2019-03-11T04:38:17.671Z,3.9
2019-03-11T04:39:17.583Z,3.8
2019-03-11T04:40:17.491Z,3.8
2019-03-11T04:41:17.413Z,3.8
2019-03-11T04:42:17.317Z,3.7
2019-03-11T04:43:17.197Z,3.7
2019-03-11T04:44:17.542Z,3.6
2019-03-11T04:45:17.443Z,3.6
2019-03-11T04:46:17.320Z,3.6
2019-03-11T04:47:17.214Z,3.6
2019-03-11T04:48:17.131Z,3.6
2019-03-11T04:49:17.023Z,3.5
2019-03-11T04:50:16.933Z,3.6
2019-03-11T04:51:16.935Z,3.6
2019-03-11T04:52:16.850Z,3.5
2019-03-11T04:53:16.759Z,3.5
2019-03-11T04:54:17.085Z,3.4
2019-03-11T04:55:16.971Z,3.5
2019-03-11T04:56:16.871Z,3.5
2019-03-11T04:57:16.749Z,3.5
2019-03-11T04:58:16.637Z,3.5
2019-03-11T04:59:16.513Z,3.4
2019-03-11T05:00:16.406Z,3.4
2019-03-11T05:01:16.311Z,3.4
2019-03-11T05:02:16.214Z,3.4
2019-03-11T05:03:16.112Z,3.3
2019-03-11T05:04:16.522Z,3.3
2019-03-11T05:05:16.399Z,3.3
2019-03-11T05:06:16.309Z,3.3
2019-03-11T05:07:16.212Z,3.3
2019-03-11T05:08:16.117Z,3.2
2019-03-11T05:09:16.012Z,3.2
2019-03-11T05:10:17.100Z,3.2
2019-03-11T05:11:16.970Z,3.1
2019-03-11T05:12:16.850Z,3
2019-03-11T05:13:16.740Z,2.8
2019-03-11T05:14:17.076Z,2.6
2019-03-11T05:15:16.975Z,2.7
2019-03-11T05:16:16.944Z,2.8
2019-03-11T05:17:16.880Z,2.8
2019-03-11T05:18:16.794Z,2.9
2019-03-11T05:19:16.710Z,2.8
2019-03-11T05:20:16.655Z,2.9
2019-03-11T05:21:16.568Z,3
2019-03-11T05:22:16.475Z,3
2019-03-11T05:23:16.419Z,3
2019-03-11T05:24:16.774Z,3
2019-03-11T05:25:16.684Z,3
2019-03-11T05:26:16.573Z,3.1
2019-03-11T05:27:16.462Z,3
2019-03-11T05:28:16.346Z,3
2019-03-11T05:29:16.224Z,3.1
2019-03-11T05:30:16.139Z,3.1
2019-03-11T05:31:16.036Z,3.1
2019-03-11T05:32:15.925Z,3.1
2019-03-11T05:33:15.818Z,3.1
2019-03-11T05:34:19.116Z,3.1
2019-03-11T05:35:19.025Z,3.1
2019-03-11T05:36:18.922Z,3.2
2019-03-11T05:37:18.836Z,3.1
2019-03-11T05:38:18.708Z,3.2
2019-03-11T05:39:18.605Z,3.2
2019-03-11T05:40:18.551Z,3.1
2019-03-11T05:41:18.457Z,3.2
2019-03-11T05:42:18.346Z,3.2
2019-03-11T05:43:18.254Z,3.2
2019-03-11T05:44:18.563Z,3.2
2019-03-11T05:45:18.460Z,3.1
2019-03-11T05:46:18.407Z,3.2
2019-03-11T05:47:18.302Z,3.2
2019-03-11T05:48:18.191Z,3.2
2019-03-11T05:49:18.078Z,3.2
2019-03-11T05:50:17.995Z,3.2
2019-03-11T05:51:17.914Z,3.2
2019-03-11T05:52:17.798Z,3.2
2019-03-11T05:53:17.684Z,3.2
2019-03-11T05:54:18.014Z,3.2
2019-03-11T05:55:17.928Z,3.3
2019-03-11T06:04:16.198Z,4
2019-03-11T06:05:16.122Z,4
2019-03-11T06:06:16.028Z,3.9
2019-03-11T06:07:15.966Z,3.9
2019-03-11T06:08:15.862Z,3.9
2019-03-11T06:09:15.755Z,3.9
2019-03-11T06:10:15.640Z,3.9
2019-03-11T06:11:15.597Z,3.9
2019-03-11T06:12:15.510Z,3.9
2019-03-11T06:13:15.411Z,3.9
2019-03-11T06:14:15.735Z,3.9
2019-03-11T06:15:15.667Z,3.8
2019-03-11T06:16:15.597Z,3.9
2019-03-11T06:24:16.801Z,4.5
2019-03-11T06:25:16.703Z,4.4
2019-03-11T06:26:16.628Z,4.3
2019-03-11T06:27:16.522Z,4.3
2019-03-11T06:28:16.462Z,4.4
2019-03-11T06:29:16.359Z,4.4
2019-03-11T06:30:16.333Z,4.3
2019-03-11T06:31:16.220Z,4.3
2019-03-11T06:32:16.120Z,4.3
2019-03-11T06:33:16.006Z,4.3
2019-03-11T06:34:16.429Z,4.3
2019-03-11T06:35:16.315Z,4.3
2019-03-11T06:36:16.241Z,4.3
2019-03-11T06:37:16.165Z,4.3
2019-03-11T06:38:16.050Z,4.4
2019-03-11T06:39:15.975Z,4.3
2019-03-11T06:40:15.895Z,4.3
2019-03-11T06:41:15.789Z,4.3
2019-03-11T06:42:15.684Z,4.3
2019-03-11T06:43:15.572Z,4.3
2019-03-11T06:44:15.908Z,4.3
2019-03-11T06:45:19.326Z,4.2
2019-03-11T06:46:19.227Z,4.2
2019-03-11T06:47:19.129Z,4.2
2019-03-11T06:48:19.023Z,4.1
2019-03-11T06:49:18.978Z,4.1
2019-03-11T06:50:18.878Z,4.1
2019-03-11T06:51:18.804Z,4.1
2019-03-11T06:52:18.694Z,4.1
2019-03-11T06:53:18.572Z,4.1
2019-03-11T06:54:18.894Z,4
2019-03-11T06:55:18.811Z,3.9
2019-03-11T06:56:18.721Z,3.8
2019-03-11T06:57:18.616Z,3.8
2019-03-11T06:58:18.522Z,3.8
2019-03-11T06:59:18.435Z,3.7
2019-03-11T07:00:18.378Z,3.7
2019-03-11T07:01:18.292Z,3.7
2019-03-11T07:02:18.248Z,3.7
2019-03-11T07:03:18.161Z,3.7
2019-03-11T07:04:18.484Z,3.7
2019-03-11T07:05:21.662Z,3.6
2019-03-11T07:06:21.560Z,3.5
2019-03-11T07:07:21.518Z,3.3
2019-03-11T07:08:21.444Z,3.3
2019-03-11T07:09:21.613Z,3.4
2019-03-11T07:10:21.897Z,3.5
2019-03-11T07:11:21.796Z,3.5
2019-03-11T07:12:21.691Z,3.5
2019-03-11T07:13:21.595Z,3.6
2019-03-11T07:14:21.913Z,3.6
2019-03-11T07:15:21.808Z,3.6
2019-03-11T07:16:21.731Z,3.6
2019-03-11T07:17:21.681Z,3.6
2019-03-11T07:18:21.589Z,3.5
2019-03-11T07:19:21.479Z,3.6
2019-03-11T07:20:21.383Z,3.6
2019-03-11T07:21:21.295Z,3.6
2019-03-11T07:22:21.196Z,3.6
2019-03-11T07:23:21.072Z,3.6
2019-03-11T07:24:21.422Z,3.6
2019-03-11T07:25:21.321Z,3.5
2019-03-11T07:26:21.243Z,3.3
2019-03-11T07:27:21.119Z,3.3
2019-03-11T07:28:21.037Z,3.3
2019-03-11T07:29:20.937Z,3.4
2019-03-11T07:30:20.820Z,3.4
2019-03-11T07:31:20.753Z,3.4
2019-03-11T07:32:20.648Z,3.5
2019-03-11T07:33:20.621Z,3.4
2019-03-11T07:34:21.130Z,3.4
2019-03-11T07:35:21.009Z,3.4
2019-03-11T07:36:20.891Z,3.4
2019-03-11T07:37:21.147Z,3.5
2019-03-11T07:38:21.523Z,3.5
2019-03-11T07:39:21.419Z,3.5
2019-03-11T07:40:30.979Z,3.6
2019-03-11T07:41:30.899Z,3.6
2019-03-11T07:42:30.823Z,3.6
2019-03-11T07:43:30.727Z,3.6
2019-03-11T07:44:31.051Z,3.6
2019-03-11T07:45:30.953Z,3.6
2019-03-11T07:46:30.849Z,3.7
2019-03-11T07:47:30.839Z,3.7
2019-03-11T07:48:30.745Z,3.9
2019-03-11T07:49:30.631Z,4
2019-03-11T07:50:30.588Z,4.1
2019-03-11T07:51:30.483Z,4.2
2019-03-11T07:52:30.373Z,4.3
2019-03-11T07:53:30.299Z,4.3
2019-03-11T07:54:36.607Z,4.3
2019-03-11T07:55:36.557Z,4.3
2019-03-11T07:56:36.453Z,4.4
2019-03-11T07:57:36.344Z,4.5
2019-03-11T07:58:36.286Z,4.6
2019-03-11T07:59:36.193Z,4.6
2019-03-11T08:00:36.074Z,4.6
2019-03-11T08:01:35.971Z,4.6
2019-03-11T08:02:35.883Z,4.5
2019-03-11T08:03:35.777Z,4.5
2019-03-11T08:04:36.145Z,4.6
2019-03-11T08:05:36.044Z,4.7
2019-03-11T08:06:35.922Z,4.6
2019-03-11T08:07:35.827Z,4.7
2019-03-11T08:08:36.412Z,4.7
2019-03-11T08:09:39.075Z,4.7
2019-03-11T08:10:39.068Z,4.7
2019-03-11T08:11:39.027Z,4.6
2019-03-11T08:12:38.928Z,4.6
2019-03-11T08:13:38.827Z,4.5
2019-03-11T08:14:39.165Z,4.5
2019-03-11T08:15:39.051Z,4.5
2019-03-11T08:16:38.957Z,4.4
2019-03-11T08:17:38.887Z,4.5
2019-03-11T08:24:37.638Z,4.7
2019-03-11T08:25:37.548Z,4.7
2019-03-11T08:26:37.453Z,4.7
2019-03-11T08:27:37.365Z,4.8
2019-03-11T08:28:37.253Z,4.7
2019-03-11T08:29:37.150Z,4.9
2019-03-11T08:30:37.088Z,4.9
2019-03-11T08:31:36.981Z,4.9
2019-03-11T08:32:36.881Z,4.8
2019-03-11T08:33:36.755Z,4.8
2019-03-11T08:34:37.119Z,4.7
2019-03-11T08:35:37.032Z,4.7
2019-03-11T08:36:36.946Z,4.7
2019-03-11T08:37:36.841Z,4.5
2019-03-11T08:38:36.736Z,4.5
2019-03-11T08:39:36.618Z,4.4
2019-03-11T08:40:36.530Z,4.3
2019-03-11T08:41:36.470Z,4.3
2019-03-11T08:42:36.388Z,4.2
2019-03-11T08:43:36.377Z,4.3
2019-03-11T08:44:36.728Z,4.3
2019-03-11T08:45:36.642Z,4.3
2019-03-11T08:46:36.619Z,4.3
2019-03-11T08:47:36.546Z,4.3
2019-03-11T08:48:36.446Z,4.4
2019-03-11T08:49:36.342Z,4.3
2019-03-11T08:50:36.250Z,4.3
2019-03-11T08:51:36.247Z,4.3
2019-03-11T08:52:36.144Z,4.3
2019-03-11T08:53:36.024Z,4.3
2019-03-11T08:54:36.348Z,4.3
2019-03-11T08:55:36.236Z,4.3
2019-03-11T08:56:36.132Z,4.2
2019-03-11T08:57:36.044Z,3.7
2019-03-11T08:58:35.922Z,3.4
2019-03-11T08:59:35.830Z,3
2019-03-11T09:00:35.822Z,2.7
2019-03-11T09:01:35.774Z,2.6
2019-03-11T09:02:35.675Z,2.3
2019-03-11T09:03:35.580Z,2.2
2019-03-11T09:04:35.918Z,1.9
2019-03-11T09:05:35.836Z,1.9
2019-03-11T09:14:34.112Z,1.8
2019-03-11T09:15:34.004Z,1.8
2019-03-11T09:16:33.906Z,1.7
2019-03-11T09:17:33.796Z,1.7
2019-03-11T09:18:34.597Z,1.7
2019-03-11T09:19:34.506Z,1.6
2019-03-11T09:20:34.408Z,1.5
2019-03-11T09:21:34.318Z,1.5
2019-03-11T09:22:34.208Z,1.4
2019-03-11T09:23:34.142Z,1.3
2019-03-11T09:24:34.516Z,1.3
2019-03-11T09:25:34.416Z,1.2
2019-03-11T09:26:34.342Z,1.1
2019-03-11T09:27:34.232Z,1
2019-03-11T09:28:34.602Z,1
2019-03-11T09:29:35.086Z,1.1
2019-03-11T09:30:35.053Z,0.9
2019-03-11T09:31:34.943Z,0.9
2019-03-11T09:32:34.852Z,1
2019-03-11T09:33:34.751Z,1
2019-03-11T09:34:35.090Z,1
2019-03-11T09:35:34.986Z,1.1
2019-03-11T09:36:34.878Z,1.2
2019-03-11T09:37:34.770Z,1.2
2019-03-11T09:38:34.648Z,1.2
2019-03-11T09:39:34.556Z,1.1
2019-03-11T09:40:34.455Z,1.1
2019-03-11T09:41:34.339Z,1.1
2019-03-11T09:42:34.226Z,0.9
2019-03-11T09:43:34.124Z,1
2019-03-11T09:44:34.466Z,1
2019-03-11T10:04:53.891Z,1.8
2019-03-11T10:05:53.860Z,1.8
2019-03-11T10:06:53.752Z,1.8
2019-03-11T10:07:54.051Z,1.7
2019-03-11T10:08:54.419Z,1.5
2019-03-11T10:09:54.333Z,1.5
2019-03-11T10:10:54.266Z,1.5
2019-03-11T10:11:54.161Z,1.5
2019-03-11T10:12:54.078Z,1.5
2019-03-11T10:13:53.957Z,1.5
2019-03-11T10:14:54.323Z,1.6
2019-03-11T10:15:54.243Z,1.6
2019-03-11T10:16:54.162Z,1.6
2019-03-11T10:17:54.089Z,1.6
2019-03-11T10:18:53.999Z,1.6
2019-03-11T10:19:53.962Z,1.6
2019-03-11T10:20:53.881Z,1.6
2019-03-11T10:21:53.779Z,1.6
2019-03-11T10:22:53.677Z,1.5
2019-03-11T10:23:53.605Z,1.5
2019-03-11T10:24:54.021Z,1.5
2019-03-11T10:25:53.953Z,1.6
2019-03-11T10:26:53.859Z,1.5
2019-03-11T10:27:53.741Z,1.6
2019-03-11T10:28:53.651Z,1.6
2019-03-11T10:29:53.541Z,1.6
2019-03-11T10:30:53.468Z,1.6
2019-03-11T10:31:53.375Z,1.6
2019-03-11T10:32:53.279Z,1.6
2019-03-11T10:33:53.167Z,1.6
2019-03-11T10:34:53.487Z,1.6
2019-03-11T10:35:53.368Z,1.6
2019-03-11T10:36:53.286Z,1.6
2019-03-11T10:37:53.251Z,1.6
2019-03-11T10:38:53.130Z,1.7
2019-03-11T10:39:53.041Z,1.7
2019-03-11T10:40:52.941Z,1.7
2019-03-11T10:41:52.824Z,1.7
2019-03-11T10:42:52.736Z,1.7
2019-03-11T10:43:52.643Z,1.7
2019-03-11T10:44:52.975Z,1.7
2019-03-11T10:45:52.873Z,1.8
2019-03-11T10:54:51.563Z,2.5
2019-03-11T10:55:51.448Z,2.4
2019-03-11T10:56:51.329Z,2.3
2019-03-11T10:57:51.221Z,2.4
2019-03-11T10:58:51.129Z,2.4
2019-03-11T10:59:51.141Z,2.4
2019-03-11T11:00:51.059Z,2.4
2019-03-11T11:01:50.964Z,2.3
2019-03-11T11:02:50.886Z,2.4
2019-03-11T11:03:50.800Z,2.3
2019-03-11T11:04:51.144Z,2.3
2019-03-11T11:05:51.017Z,2.3
2019-03-11T11:06:50.924Z,2.4
2019-03-11T11:07:50.824Z,2.4
2019-03-11T11:08:50.752Z,2.4
2019-03-11T11:09:50.652Z,2.5
2019-03-11T11:10:50.565Z,2.5
2019-03-11T11:11:50.467Z,2.5
2019-03-11T11:12:50.362Z,2.6
2019-03-11T11:13:50.277Z,2.5
2019-03-11T11:14:50.653Z,2.4
2019-03-11T11:15:50.536Z,2.5
2019-03-11T11:16:50.415Z,2.6
2019-03-11T11:17:50.327Z,2.6
2019-03-11T11:18:50.235Z,2.6
2019-03-11T11:19:50.145Z,2.6
2019-03-11T11:20:50.046Z,2.6
2019-03-11T11:21:49.951Z,2.6
2019-03-11T11:22:49.871Z,2.6
2019-03-11T11:23:49.812Z,2.6
2019-03-11T11:24:50.142Z,2.6
2019-03-11T11:25:50.064Z,2.6
2019-03-11T11:26:49.974Z,2.7
2019-03-11T11:27:49.881Z,2.8
2019-03-11T11:28:49.784Z,2.9
2019-03-11T11:29:49.727Z,2.9
2019-03-11T11:30:49.629Z,3
2019-03-11T11:31:49.535Z,2.9
2019-03-11T11:32:49.428Z,2.8
2019-03-11T11:33:49.322Z,2.9
2019-03-11T11:34:49.668Z,2.9
2019-03-11T11:35:49.571Z,3
2019-03-11T11:36:49.509Z,2.9
2019-03-11T11:37:49.407Z,3
2019-03-11T11:38:49.317Z,3
2019-03-11T11:39:49.195Z,3.1
2019-03-11T11:40:49.091Z,3
2019-03-11T11:41:48.991Z,2.9
2019-03-11T11:42:48.876Z,3
2019-03-11T11:43:48.784Z,3
2019-03-11T11:44:49.106Z,3
2019-03-11T11:45:49.014Z,3
2019-03-11T11:46:48.909Z,3.1
2019-03-11T11:47:48.795Z,3.1
2019-03-11T11:48:48.675Z,3.2
2019-03-11T11:49:48.601Z,3.3
2019-03-11T11:50:48.517Z,3.3
2019-03-11T11:51:48.409Z,3.3
2019-03-11T11:52:48.301Z,3.3
2019-03-11T11:53:48.240Z,3.4
2019-03-11T11:54:48.549Z,3.4
2019-03-11T11:55:58.698Z,3.5
2019-03-11T11:56:58.599Z,3.4
2019-03-11T11:57:58.508Z,3.4
2019-03-11T11:58:58.410Z,3.4
2019-03-11T11:59:58.307Z,3.4
2019-03-11T12:00:58.264Z,3.5
2019-03-11T12:02:04.841Z,3.5
2019-03-11T12:03:04.790Z,3.5
2019-03-11T12:04:04.682Z,3.5
2019-03-11T12:05:05.032Z,3.6
2019-03-11T12:06:04.953Z,3.5
2019-03-11T12:07:04.837Z,3.6
2019-03-11T12:08:04.760Z,3.4
2019-03-11T12:09:04.652Z,3.4
2019-03-11T12:10:04.544Z,3.4
2019-03-11T12:11:04.439Z,3.4
2019-03-11T12:12:06.807Z,3.4
2019-03-11T12:13:09.913Z,3.4
2019-03-11T12:14:09.814Z,3.4
2019-03-11T12:15:10.142Z,3.3
2019-03-11T12:16:10.043Z,3.3
2019-03-11T12:17:09.952Z,3.3
2019-03-11T12:18:09.856Z,3.3
2019-03-11T12:19:09.765Z,3.3
2019-03-11T12:20:09.672Z,3.2
2019-03-11T12:21:09.600Z,3.3
2019-03-11T12:22:09.534Z,3.2
2019-03-11T12:23:09.420Z,3.3
2019-03-11T12:24:09.415Z,3.3
2019-03-11T12:25:09.740Z,3.3
2019-03-11T12:26:09.683Z,3.4
2019-03-11T12:27:09.614Z,3.4
2019-03-11T12:28:09.514Z,3.5
2019-03-11T12:29:09.408Z,3.5
2019-03-11T12:30:09.294Z,3.5
2019-03-11T12:31:09.227Z,3.5
2019-03-11T12:32:09.138Z,3.5
2019-03-11T12:33:09.020Z,3.5
2019-03-11T12:34:08.984Z,3.5
2019-03-11T12:35:09.375Z,3.5
2019-03-11T12:36:09.297Z,3.6
2019-03-11T12:37:09.229Z,3.5
2019-03-11T12:45:07.728Z,3.7
2019-03-11T12:46:07.608Z,3.7
2019-03-11T12:47:07.532Z,3.6
2019-03-11T12:48:07.622Z,3.7
2019-03-11T12:49:07.582Z,3.7
2019-03-11T12:50:07.452Z,3.6
2019-03-11T12:51:07.340Z,3.6
2019-03-11T12:52:07.222Z,3.6
2019-03-11T12:53:07.154Z,3.5
2019-03-11T12:54:07.050Z,3.5
2019-03-11T12:55:07.393Z,3.4
2019-03-11T12:56:07.296Z,3.4
2019-03-11T12:57:07.202Z,3.4
2019-03-11T12:58:07.122Z,3.2
2019-03-11T12:59:07.024Z,3.3
2019-03-11T13:00:06.958Z,3.2
2019-03-11T13:01:06.868Z,3.3
2019-03-11T13:02:06.768Z,3.2
2019-03-11T13:03:06.731Z,3.2
2019-03-11T13:04:06.652Z,3.2
2019-03-11T13:05:07.040Z,3.2
2019-03-11T13:06:06.950Z,3.1
2019-03-11T13:15:05.177Z,3.4
2019-03-11T13:16:05.094Z,3.4
2019-03-11T13:17:05.040Z,3.4
2019-03-11T13:18:04.927Z,3.3
2019-03-11T13:19:14.195Z,3.3
2019-03-11T13:20:14.124Z,3.3
2019-03-11T13:21:14.028Z,3.3
2019-03-11T13:22:13.906Z,3.2
2019-03-11T13:23:13.815Z,3.1
2019-03-11T13:24:13.705Z,3
2019-03-11T13:25:14.071Z,3.1
2019-03-11T13:26:13.986Z,3.1
2019-03-11T13:27:13.903Z,3
2019-03-11T13:28:13.803Z,3
2019-03-11T13:29:13.722Z,3
2019-03-11T13:30:13.638Z,2.9
2019-03-11T13:31:13.579Z,2.9
2019-03-11T13:32:13.490Z,3
2019-03-11T13:33:13.434Z,3
2019-03-11T13:34:13.363Z,2.9
2019-03-11T13:35:13.707Z,2.9
2019-03-11T13:36:13.659Z,2.9
2019-03-11T13:37:13.553Z,2.9
2019-03-11T13:38:13.474Z,2.9
2019-03-11T13:39:13.364Z,2.8
2019-03-11T13:40:13.249Z,2.8
2019-03-11T13:41:13.167Z,2.8
2019-03-11T13:42:13.057Z,2.8
2019-03-11T13:43:12.951Z,2.9
2019-03-11T13:44:12.851Z,2.9
2019-03-11T13:45:13.165Z,2.9
2019-03-11T13:46:13.068Z,2.9
2019-03-11T13:55:11.421Z,3.4
2019-03-11T13:56:11.348Z,3.4
2019-03-11T13:57:11.254Z,3.3
2019-03-11T13:58:11.158Z,3.3
2019-03-11T13:59:11.054Z,3.2
2019-03-11T14:00:10.966Z,3.2
2019-03-11T14:01:10.857Z,3.2
2019-03-11T14:02:10.805Z,3.1
2019-03-11T14:03:10.718Z,3
2019-03-11T14:04:10.635Z,3
2019-03-11T14:05:11.753Z,3
2019-03-11T14:06:11.689Z,3
2019-03-11T14:07:11.617Z,3
2019-03-11T14:08:11.526Z,3
2019-03-11T14:09:11.427Z,3
2019-03-11T14:10:11.313Z,2.8
2019-03-11T14:11:11.224Z,2.8
2019-03-11T14:12:11.119Z,2.8
2019-03-11T14:13:11.067Z,2.7
2019-03-11T14:14:11.024Z,2.6
2019-03-11T14:15:11.330Z,2.5
2019-03-11T14:16:11.222Z,2.5
2019-03-11T14:17:11.113Z,2.6
2019-03-11T14:18:11.023Z,2.6
2019-03-11T14:19:10.905Z,2.6
2019-03-11T14:20:10.795Z,2.6
2019-03-11T14:21:10.692Z,2.6
2019-03-11T14:22:10.603Z,2.6
2019-03-11T14:23:10.517Z,2.6
2019-03-11T14:24:10.495Z,2.6
2019-03-11T14:25:10.981Z,2.6
2019-03-11T14:26:10.915Z,2.6
2019-03-11T14:27:10.813Z,2.4
2019-03-11T14:28:10.723Z,2.5
2019-03-11T14:29:10.653Z,2.5
2019-03-11T14:30:10.549Z,2.6
2019-03-11T14:31:10.439Z,2.5
2019-03-11T14:32:11.152Z,2.5
2019-03-11T14:33:11.039Z,2.6
2019-03-11T14:34:10.952Z,2.5
2019-03-11T14:35:11.301Z,2.5
2019-03-11T14:36:11.197Z,2.5
2019-03-11T14:37:11.123Z,2.5
2019-03-11T14:38:11.007Z,2.5
2019-03-11T14:39:10.912Z,2.5
2019-03-11T14:40:10.808Z,2.6
2019-03-11T14:41:10.691Z,2.6
2019-03-11T14:42:10.593Z,2.5
2019-03-11T14:43:10.523Z,2.5
2019-03-11T14:44:10.409Z,2.4
2019-03-11T14:45:10.839Z,2.4
2019-03-11T14:46:10.779Z,2.5
2019-03-11T14:47:10.723Z,2.4
2019-03-11T14:48:10.671Z,2.4
2019-03-11T14:49:10.571Z,2.4
2019-03-11T14:50:10.502Z,2.4
2019-03-11T14:51:10.429Z,2.2
2019-03-11T14:52:10.326Z,2.3
2019-03-11T14:53:10.243Z,2.3
2019-03-11T14:54:10.145Z,2.4
2019-03-11T14:55:10.501Z,2.4
2019-03-11T14:56:10.404Z,2.3
2019-03-11T14:57:10.333Z,2.3
2019-03-11T14:58:10.248Z,2.3
2019-03-11T14:59:10.142Z,2.3
2019-03-11T15:00:10.060Z,2.4
2019-03-11T15:01:09.941Z,2.3
2019-03-11T15:02:09.837Z,2.3
2019-03-11T15:03:09.732Z,2.3
2019-03-11T15:04:09.627Z,2.3
2019-03-11T15:05:09.959Z,2.3
2019-03-11T15:06:09.857Z,2.3
2019-03-11T15:07:09.753Z,2.3
2019-03-11T15:08:09.660Z,2.3
2019-03-11T15:09:12.237Z,2.3
2019-03-11T15:10:12.214Z,2.3
2019-03-11T15:11:12.111Z,2.2
2019-03-11T15:12:12.039Z,2.2
2019-03-11T15:13:12.012Z,2.2
2019-03-11T15:14:11.891Z,2.2
2019-03-11T15:15:12.227Z,2.2
2019-03-11T15:16:12.143Z,2.1
2019-03-11T15:17:12.032Z,2.1
2019-03-11T15:18:11.950Z,2.2
2019-03-11T15:19:11.858Z,2.1
2019-03-11T15:20:11.803Z,2.2
2019-03-11T15:21:16.771Z,1.9
2019-03-11T15:22:16.647Z,1.4
2019-03-11T15:23:21.555Z,1.5
2019-03-11T15:24:21.484Z,1.6
2019-03-11T15:25:21.814Z,1.7
2019-03-11T15:26:26.203Z,1.7
2019-03-11T15:55:38.492Z,3.1
2019-03-11T15:56:38.498Z,3.1
2019-03-11T15:57:39.802Z,2.9
2019-03-11T15:58:39.712Z,2.8
2019-03-11T15:59:39.632Z,2.6
2019-03-11T16:00:39.538Z,2.5
2019-03-11T16:01:39.447Z,2.4
2019-03-11T16:02:41.934Z,2.4
2019-03-11T16:03:41.835Z,2.4
2019-03-11T16:04:41.744Z,2.4
2019-03-11T16:05:42.140Z,2.3
2019-03-11T16:06:42.023Z,2.2
2019-03-11T16:07:41.953Z,2.2
2019-03-11T16:08:42.858Z,2.1
2019-03-11T16:09:42.764Z,2.1
2019-03-11T16:10:42.650Z,2.1
2019-03-11T16:11:42.556Z,2.1
2019-03-11T16:12:42.474Z,2.1
2019-03-11T16:13:42.414Z,2.1
2019-03-11T16:14:50.465Z,1.9
2019-03-11T16:15:50.841Z,2
2019-03-11T16:16:51.022Z,2.1
2019-03-11T16:17:51.354Z,2.1
2019-03-11T16:18:51.284Z,2.1
2019-03-11T16:19:51.182Z,2.1
2019-03-11T16:20:51.118Z,2.1
2019-03-11T16:21:51.057Z,2.2
2019-03-11T16:22:51.000Z,2.1
2019-03-11T16:23:50.918Z,2
2019-03-11T16:24:50.821Z,1.9
2019-03-11T16:25:51.156Z,2
2019-03-11T16:26:51.072Z,2
2019-03-11T16:27:50.975Z,2.1
2019-03-11T16:28:50.898Z,2
2019-03-11T16:29:50.809Z,2
2019-03-11T16:30:50.704Z,2
2019-03-11T16:31:50.606Z,2